sensor_id;sensor_type;location;lat;lon;timestamp;pressure;altitude;pressure_sealevel;temperature;humidity
50484;BME280;36409;52.168;20.878;2022-11-11T00:00:03;101698.28;;;5.54;82.54
50484;BME280;36409;52.168;20.878;2022-11-11T00:03:11;101698.31;;;5.56;82.61
50484;BME280;36409;52.168;20.878;2022-11-11T00:06:01;101706.98;;;5.56;82.47
50484;BME280;36409;52.168;20.878;2022-11-11T00:08:49;101699.23;;;5.58;82.85
50484;BME280;36409;52.168;20.878;2022-11-11T00:11:37;101696.67;;;5.60;82.87
50484;BME280;36409;52.168;20.878;2022-11-11T00:14:25;101697.57;;;5.60;82.62
50484;BME280;36409;52.168;20.878;2022-11-11T00:17:13;101699.33;;;5.61;82.82
50484;BME280;36409;52.168;20.878;2022-11-11T00:20:19;101700.22;;;5.63;82.59
50484;BME280;36409;52.168;20.878;2022-11-11T00:23:33;101696.06;;;5.68;82.67
50484;BME280;36409;52.168;20.878;2022-11-11T00:26:40;101708.21;;;5.71;82.80
50484;BME280;36409;52.168;20.878;2022-11-11T00:29:28;101706.52;;;5.71;82.98
50484;BME280;36409;52.168;20.878;2022-11-11T00:32:17;101701.39;;;5.75;82.63
50484;BME280;36409;52.168;20.878;2022-11-11T00:35:13;101700.63;;;5.77;82.60
50484;BME280;36409;52.168;20.878;2022-11-11T00:38:19;101695.38;;;5.76;82.88
50484;BME280;36409;52.168;20.878;2022-11-11T00:41:27;101692.76;;;5.74;82.85
50484;BME280;36409;52.168;20.878;2022-11-11T00:44:15;101692.73;;;5.72;82.51
50484;BME280;36409;52.168;20.878;2022-11-11T00:47:03;101696.20;;;5.75;82.96
50484;BME280;36409;52.168;20.878;2022-11-11T00:50:15;101698.03;;;5.77;83.06
50484;BME280;36409;52.168;20.878;2022-11-11T00:53:28;101701.58;;;5.81;83.17
50484;BME280;36409;52.168;20.878;2022-11-11T00:56:20;101700.89;;;5.88;83.05
50484;BME280;36409;52.168;20.878;2022-11-11T00:59:09;101697.58;;;5.94;82.88
50484;BME280;36409;52.168;20.878;2022-11-11T01:01:57;101701.25;;;6.00;83.03
50484;BME280;36409;52.168;20.878;2022-11-11T01:04:46;101698.77;;;6.05;83.01
50484;BME280;36409;52.168;20.878;2022-11-11T01:07:34;101703.32;;;6.14;83.06
50484;BME280;36409;52.168;20.878;2022-11-11T01:10:23;101706.14;;;6.23;83.34
50484;BME280;36409;52.168;20.878;2022-11-11T01:13:28;101696.80;;;6.30;83.46
50484;BME280;36409;52.168;20.878;2022-11-11T01:16:25;101702.18;;;6.38;83.52
50484;BME280;36409;52.168;20.878;2022-11-11T01:19:12;101704.07;;;6.45;83.16
50484;BME280;36409;52.168;20.878;2022-11-11T01:22:01;101701.64;;;6.51;83.36
50484;BME280;36409;52.168;20.878;2022-11-11T01:24:48;101694.83;;;6.56;83.45
50484;BME280;36409;52.168;20.878;2022-11-11T01:27:36;101699.34;;;6.63;83.53
50484;BME280;36409;52.168;20.878;2022-11-11T01:30:24;101698.61;;;6.69;83.33
50484;BME280;36409;52.168;20.878;2022-11-11T01:33:12;101696.13;;;6.75;83.46
50484;BME280;36409;52.168;20.878;2022-11-11T01:36:05;101691.96;;;6.82;83.54
50484;BME280;36409;52.168;20.878;2022-11-11T01:38:55;101696.44;;;6.89;83.44
50484;BME280;36409;52.168;20.878;2022-11-11T01:41:44;101693.94;;;6.94;83.59
50484;BME280;36409;52.168;20.878;2022-11-11T01:44:45;101691.42;;;6.97;83.40
50484;BME280;36409;52.168;20.878;2022-11-11T01:47:34;101691.52;;;7.02;83.55
50484;BME280;36409;52.168;20.878;2022-11-11T01:50:59;101682.13;;;7.07;83.56
50484;BME280;36409;52.168;20.878;2022-11-11T01:53:52;101681.30;;;7.09;83.44
50484;BME280;36409;52.168;20.878;2022-11-11T01:56:46;101682.23;;;7.13;83.57
50484;BME280;36409;52.168;20.878;2022-11-11T01:59:36;101668.48;;;7.17;83.68
50484;BME280;36409;52.168;20.878;2022-11-11T02:02:31;101665.95;;;7.20;83.58
50484;BME280;36409;52.168;20.878;2022-11-11T02:05:22;101660.80;;;7.23;83.58
50484;BME280;36409;52.168;20.878;2022-11-11T02:08:31;101665.23;;;7.28;83.21
50484;BME280;36409;52.168;20.878;2022-11-11T02:11:21;101663.47;;;7.26;83.47
50484;BME280;36409;52.168;20.878;2022-11-11T02:14:24;101660.02;;;7.26;83.83
50484;BME280;36409;52.168;20.878;2022-11-11T02:17:28;101653.91;;;7.24;83.39
50484;BME280;36409;52.168;20.878;2022-11-11T02:20:20;101659.02;;;7.21;83.34
50484;BME280;36409;52.168;20.878;2022-11-11T02:23:11;101658.09;;;7.17;83.51
50484;BME280;36409;52.168;20.878;2022-11-11T02:26:02;101658.02;;;7.14;83.04
50484;BME280;36409;52.168;20.878;2022-11-11T02:28:52;101666.58;;;7.10;83.26
50484;BME280;36409;52.168;20.878;2022-11-11T02:31:41;101670.82;;;7.05;83.44
50484;BME280;36409;52.168;20.878;2022-11-11T02:34:30;101662.04;;;7.00;83.37
50484;BME280;36409;52.168;20.878;2022-11-11T02:37:20;101669.71;;;6.93;83.03
50484;BME280;36409;52.168;20.878;2022-11-11T02:40:11;101680.00;;;6.89;83.46
50484;BME280;36409;52.168;20.878;2022-11-11T02:43:03;101675.55;;;6.83;83.22
50484;BME280;36409;52.168;20.878;2022-11-11T02:45:51;101684.99;;;6.79;83.28
50484;BME280;36409;52.168;20.878;2022-11-11T02:48:42;101689.19;;;6.74;82.98
50484;BME280;36409;52.168;20.878;2022-11-11T02:51:30;101687.36;;;6.70;83.62
50484;BME280;36409;52.168;20.878;2022-11-11T02:54:17;101683.80;;;6.65;83.30
50484;BME280;36409;52.168;20.878;2022-11-11T02:57:06;101698.42;;;6.61;83.07
50484;BME280;36409;52.168;20.878;2022-11-11T02:59:55;101695.72;;;6.57;83.47
50484;BME280;36409;52.168;20.878;2022-11-11T03:02:46;101700.80;;;6.52;83.20
50484;BME280;36409;52.168;20.878;2022-11-11T03:05:34;101697.23;;;6.48;83.13
50484;BME280;36409;52.168;20.878;2022-11-11T03:08:22;101698.02;;;6.44;83.17
50484;BME280;36409;52.168;20.878;2022-11-11T03:11:10;101693.67;;;6.43;83.26
50484;BME280;36409;52.168;20.878;2022-11-11T03:13:59;101697.94;;;6.41;83.05
50484;BME280;36409;52.168;20.878;2022-11-11T03:16:47;101700.45;;;6.38;83.24
50484;BME280;36409;52.168;20.878;2022-11-11T03:19:53;101704.72;;;6.36;82.91
50484;BME280;36409;52.168;20.878;2022-11-11T03:23:05;101719.33;;;6.32;83.22
50484;BME280;36409;52.168;20.878;2022-11-11T03:25:54;101709.79;;;6.31;83.23
50484;BME280;36409;52.168;20.878;2022-11-11T03:28:46;101711.50;;;6.29;83.12
50484;BME280;36409;52.168;20.878;2022-11-11T03:31:34;101705.39;;;6.27;83.40
50484;BME280;36409;52.168;20.878;2022-11-11T03:34:23;101708.81;;;6.26;83.38
50484;BME280;36409;52.168;20.878;2022-11-11T03:37:13;101706.23;;;6.26;83.51
50484;BME280;36409;52.168;20.878;2022-11-11T03:40:20;101702.80;;;6.27;83.49
50484;BME280;36409;52.168;20.878;2022-11-11T03:43:08;101705.41;;;6.29;83.22
50484;BME280;36409;52.168;20.878;2022-11-11T03:46:02;101713.28;;;6.32;83.31
50484;BME280;36409;52.168;20.878;2022-11-11T03:48:50;101725.41;;;6.33;83.39
50484;BME280;36409;52.168;20.878;2022-11-11T03:51:37;101724.58;;;6.34;83.36
50484;BME280;36409;52.168;20.878;2022-11-11T03:54:25;101729.79;;;6.36;83.56
50484;BME280;36409;52.168;20.878;2022-11-11T03:57:12;101714.23;;;6.36;83.44
50484;BME280;36409;52.168;20.878;2022-11-11T04:00:21;101716.84;;;6.37;82.95
50484;BME280;36409;52.168;20.878;2022-11-11T04:03:11;101721.20;;;6.38;83.57
50484;BME280;36409;52.168;20.878;2022-11-11T04:06:19;101728.20;;;6.41;83.58
50484;BME280;36409;52.168;20.878;2022-11-11T04:09:26;101718.69;;;6.41;83.67
50484;BME280;36409;52.168;20.878;2022-11-11T04:12:33;101720.47;;;6.44;83.61
50484;BME280;36409;52.168;20.878;2022-11-11T04:15:41;101728.31;;;6.45;83.64
50484;BME280;36409;52.168;20.878;2022-11-11T04:18:48;101730.09;;;6.48;83.56
50484;BME280;36409;52.168;20.878;2022-11-11T04:21:54;101723.23;;;6.50;83.79
50484;BME280;36409;52.168;20.878;2022-11-11T04:24:42;101737.96;;;6.51;83.65
50484;BME280;36409;52.168;20.878;2022-11-11T04:27:49;101741.44;;;6.53;83.49
50484;BME280;36409;52.168;20.878;2022-11-11T04:31:03;101749.28;;;6.55;83.61
50484;BME280;36409;52.168;20.878;2022-11-11T04:33:51;101762.34;;;6.58;83.52
50484;BME280;36409;52.168;20.878;2022-11-11T04:36:39;101754.61;;;6.61;83.79
50484;BME280;36409;52.168;20.878;2022-11-11T04:39:27;101765.07;;;6.64;83.85
50484;BME280;36409;52.168;20.878;2022-11-11T04:42:39;101748.69;;;6.67;83.82
50484;BME280;36409;52.168;20.878;2022-11-11T04:45:29;101750.50;;;6.69;83.68
50484;BME280;36409;52.168;20.878;2022-11-11T04:48:28;101738.41;;;6.71;83.62
50484;BME280;36409;52.168;20.878;2022-11-11T04:51:17;101742.84;;;6.75;83.83
50484;BME280;36409;52.168;20.878;2022-11-11T04:54:04;101745.47;;;6.77;83.85
50484;BME280;36409;52.168;20.878;2022-11-11T04:56:52;101749.88;;;6.79;83.54
50484;BME280;36409;52.168;20.878;2022-11-11T04:59:49;101745.63;;;6.83;83.84
50484;BME280;36409;52.168;20.878;2022-11-11T05:02:40;101741.36;;;6.85;84.01
50484;BME280;36409;52.168;20.878;2022-11-11T05:05:48;101735.34;;;6.88;83.86
50484;BME280;36409;52.168;20.878;2022-11-11T05:08:55;101738.88;;;6.91;83.87
50484;BME280;36409;52.168;20.878;2022-11-11T05:11:47;101742.40;;;6.93;84.00
50484;BME280;36409;52.168;20.878;2022-11-11T05:14:36;101747.67;;;6.97;83.76
50484;BME280;36409;52.168;20.878;2022-11-11T05:17:42;101757.23;;;6.99;83.96
50484;BME280;36409;52.168;20.878;2022-11-11T05:20:57;101760.75;;;7.01;83.95
50484;BME280;36409;52.168;20.878;2022-11-11T05:24:04;101752.14;;;7.04;84.10
50484;BME280;36409;52.168;20.878;2022-11-11T05:27:09;101730.61;;;7.08;84.08
50484;BME280;36409;52.168;20.878;2022-11-11T05:29:57;101729.80;;;7.10;84.06
50484;BME280;36409;52.168;20.878;2022-11-11T05:32:48;101732.41;;;7.12;84.24
50484;BME280;36409;52.168;20.878;2022-11-11T05:35:36;101743.72;;;7.14;83.70
50484;BME280;36409;52.168;20.878;2022-11-11T05:38:25;101742.03;;;7.16;83.72
50484;BME280;36409;52.168;20.878;2022-11-11T05:41:14;101735.16;;;7.18;83.82
50484;BME280;36409;52.168;20.878;2022-11-11T05:44:02;101733.48;;;7.20;83.85
50484;BME280;36409;52.168;20.878;2022-11-11T05:46:50;101741.30;;;7.22;83.86
50484;BME280;36409;52.168;20.878;2022-11-11T05:49:37;101731.84;;;7.25;83.96
50484;BME280;36409;52.168;20.878;2022-11-11T05:52:28;101734.45;;;7.27;83.78
50484;BME280;36409;52.168;20.878;2022-11-11T05:55:18;101740.56;;;7.29;83.90
50484;BME280;36409;52.168;20.878;2022-11-11T05:58:05;101744.92;;;7.30;84.21
50484;BME280;36409;52.168;20.878;2022-11-11T06:00:53;101744.09;;;7.33;83.82
50484;BME280;36409;52.168;20.878;2022-11-11T06:03:42;101744.09;;;7.33;83.64
50484;BME280;36409;52.168;20.878;2022-11-11T06:06:32;101754.56;;;7.36;83.87
50484;BME280;36409;52.168;20.878;2022-11-11T06:09:24;101745.09;;;7.38;83.88
50484;BME280;36409;52.168;20.878;2022-11-11T06:12:13;101743.41;;;7.40;83.66
50484;BME280;36409;52.168;20.878;2022-11-11T06:15:00;101742.58;;;7.42;84.16
50484;BME280;36409;52.168;20.878;2022-11-11T06:17:51;101739.16;;;7.45;83.80
50484;BME280;36409;52.168;20.878;2022-11-11T06:20:38;101733.17;;;7.48;83.50
50484;BME280;36409;52.168;20.878;2022-11-11T06:23:27;101732.30;;;7.49;84.23
50484;BME280;36409;52.168;20.878;2022-11-11T06:26:17;101738.46;;;7.52;83.63
50484;BME280;36409;52.168;20.878;2022-11-11T06:29:07;101741.08;;;7.54;83.78
50484;BME280;36409;52.168;20.878;2022-11-11T06:31:54;101745.45;;;7.56;83.67
50484;BME280;36409;52.168;20.878;2022-11-11T06:34:45;101746.39;;;7.60;83.97
50484;BME280;36409;52.168;20.878;2022-11-11T06:37:33;101739.55;;;7.64;83.92
50484;BME280;36409;52.168;20.878;2022-11-11T06:40:21;101746.55;;;7.68;83.79
50484;BME280;36409;52.168;20.878;2022-11-11T06:43:10;101732.78;;;7.72;83.95
50484;BME280;36409;52.168;20.878;2022-11-11T06:45:58;101741.48;;;7.74;83.92
50484;BME280;36409;52.168;20.878;2022-11-11T06:48:46;101747.59;;;7.76;83.70
50484;BME280;36409;52.168;20.878;2022-11-11T06:51:36;101758.03;;;7.79;83.41
50484;BME280;36409;52.168;20.878;2022-11-11T06:54:23;101761.55;;;7.81;83.81
50484;BME280;36409;52.168;20.878;2022-11-11T06:57:12;101756.41;;;7.84;83.56
50484;BME280;36409;52.168;20.878;2022-11-11T07:02:54;101764.27;;;7.87;83.96
50484;BME280;36409;52.168;20.878;2022-11-11T07:05:43;101760.84;;;7.90;83.81
50484;BME280;36409;52.168;20.878;2022-11-11T07:08:37;101766.98;;;7.94;83.93
50484;BME280;36409;52.168;20.878;2022-11-11T07:11:24;101753.13;;;7.95;83.57
50484;BME280;36409;52.168;20.878;2022-11-11T07:14:13;101741.05;;;7.97;84.08
50484;BME280;36409;52.168;20.878;2022-11-11T07:17:00;101745.40;;;7.98;83.53
50484;BME280;36409;52.168;20.878;2022-11-11T07:19:53;101754.95;;;7.99;83.41
50484;BME280;36409;52.168;20.878;2022-11-11T07:22:43;101748.94;;;8.03;84.17
50484;BME280;36409;52.168;20.878;2022-11-11T07:25:38;101740.31;;;8.06;83.53
50484;BME280;36409;52.168;20.878;2022-11-11T07:28:26;101752.53;;;8.10;84.04
50484;BME280;36409;52.168;20.878;2022-11-11T07:31:13;101739.61;;;8.14;84.07
50484;BME280;36409;52.168;20.878;2022-11-11T07:34:03;101736.22;;;8.18;83.74
50484;BME280;36409;52.168;20.878;2022-11-11T07:36:52;101731.96;;;8.24;83.76
50484;BME280;36409;52.168;20.878;2022-11-11T07:39:40;101724.30;;;8.31;83.84
50484;BME280;36409;52.168;20.878;2022-11-11T07:42:28;101718.36;;;8.39;84.05
50484;BME280;36409;52.168;20.878;2022-11-11T07:45:18;101728.87;;;8.46;83.34
50484;BME280;36409;52.168;20.878;2022-11-11T07:48:06;101726.41;;;8.53;83.19
50484;BME280;36409;52.168;20.878;2022-11-11T07:50:54;101729.14;;;8.60;84.03
50484;BME280;36409;52.168;20.878;2022-11-11T07:53:45;101725.77;;;8.68;83.44
50484;BME280;36409;52.168;20.878;2022-11-11T07:56:33;101725.00;;;8.75;83.21
50484;BME280;36409;52.168;20.878;2022-11-11T07:59:21;101725.13;;;8.83;83.19
50484;BME280;36409;52.168;20.878;2022-11-11T08:02:16;101723.55;;;8.94;83.86
50484;BME280;36409;52.168;20.878;2022-11-11T08:05:05;101734.93;;;9.01;83.12
50484;BME280;36409;52.168;20.878;2022-11-11T08:07:53;101746.26;;;9.04;83.03
50484;BME280;36409;52.168;20.878;2022-11-11T08:10:40;101736.74;;;9.06;83.03
50484;BME280;36409;52.168;20.878;2022-11-11T08:13:29;101741.16;;;9.12;83.27
50484;BME280;36409;52.168;20.878;2022-11-11T08:16:37;101756.06;;;9.22;83.38
50484;BME280;36409;52.168;20.878;2022-11-11T08:19:32;101746.60;;;9.29;83.46
50484;BME280;36409;52.168;20.878;2022-11-11T08:22:20;101753.62;;;9.36;83.55
50484;BME280;36409;52.168;20.878;2022-11-11T08:25:10;101748.47;;;9.39;82.83
50484;BME280;36409;52.168;20.878;2022-11-11T08:28:05;101745.91;;;9.44;83.58
50484;BME280;36409;52.168;20.878;2022-11-11T08:30:52;101751.22;;;9.50;83.12
50484;BME280;36409;52.168;20.878;2022-11-11T08:33:40;101746.06;;;9.56;82.97
50484;BME280;36409;52.168;20.878;2022-11-11T08:36:28;101756.55;;;9.61;83.13
50484;BME280;36409;52.168;20.878;2022-11-11T08:39:16;101758.34;;;9.65;83.34
50484;BME280;36409;52.168;20.878;2022-11-11T08:42:05;101760.15;;;9.71;82.50
50484;BME280;36409;52.168;20.878;2022-11-11T08:44:53;101757.64;;;9.82;82.94
50484;BME280;36409;52.168;20.878;2022-11-11T08:47:44;101750.80;;;9.90;83.08
50484;BME280;36409;52.168;20.878;2022-11-11T08:50:34;101740.45;;;9.99;83.27
50484;BME280;36409;52.168;20.878;2022-11-11T08:53:24;101750.98;;;10.09;83.23
50484;BME280;36409;52.168;20.878;2022-11-11T08:56:14;101751.02;;;10.13;83.03
50484;BME280;36409;52.168;20.878;2022-11-11T08:59:02;101743.23;;;10.18;82.67
50484;BME280;36409;52.168;20.878;2022-11-11T09:01:49;101752.00;;;10.23;83.18
50484;BME280;36409;52.168;20.878;2022-11-11T09:04:41;101747.67;;;10.28;83.19
50484;BME280;36409;52.168;20.878;2022-11-11T09:07:32;101766.05;;;10.38;82.92
50484;BME280;36409;52.168;20.878;2022-11-11T09:10:21;101763.52;;;10.45;83.02
50484;BME280;36409;52.168;20.878;2022-11-11T09:13:08;101772.24;;;10.49;82.86
50484;BME280;36409;52.168;20.878;2022-11-11T09:15:56;101780.14;;;10.55;81.81
50484;BME280;36409;52.168;20.878;2022-11-11T09:18:47;101761.91;;;10.58;81.89
50484;BME280;36409;52.168;20.878;2022-11-11T09:21:35;101764.55;;;10.66;82.32
50484;BME280;36409;52.168;20.878;2022-11-11T09:24:23;101762.86;;;10.73;82.46
50484;BME280;36409;52.168;20.878;2022-11-11T09:27:18;101762.03;;;10.78;82.24
50484;BME280;36409;52.168;20.878;2022-11-11T09:30:09;101755.08;;;10.82;82.20
50484;BME280;36409;52.168;20.878;2022-11-11T09:33:01;101744.66;;;10.85;81.54
50484;BME280;36409;52.168;20.878;2022-11-11T09:35:50;101742.97;;;10.93;81.93
50484;BME280;36409;52.168;20.878;2022-11-11T09:38:38;101739.52;;;10.99;81.73
50484;BME280;36409;52.168;20.878;2022-11-11T09:41:37;101730.84;;;11.03;81.37
50484;BME280;36409;52.168;20.878;2022-11-11T09:47:56;101729.16;;;11.13;81.36
50484;BME280;36409;52.168;20.878;2022-11-11T09:50:54;101744.00;;;11.20;82.19
50484;BME280;36409;52.168;20.878;2022-11-11T09:53:52;101747.50;;;11.22;81.20
50484;BME280;36409;52.168;20.878;2022-11-11T09:56:42;101739.69;;;11.25;80.79
50484;BME280;36409;52.168;20.878;2022-11-11T09:59:38;101732.72;;;11.29;81.59
50484;BME280;36409;52.168;20.878;2022-11-11T10:02:34;101721.41;;;11.30;81.66
50484;BME280;36409;52.168;20.878;2022-11-11T10:05:29;101724.85;;;11.27;81.34
50484;BME280;36409;52.168;20.878;2022-11-11T10:08:23;101727.47;;;11.27;80.93
50484;BME280;36409;52.168;20.878;2022-11-11T10:11:19;101731.83;;;11.28;81.69
50484;BME280;36409;52.168;20.878;2022-11-11T10:14:09;101721.37;;;11.27;80.69
50484;BME280;36409;52.168;20.878;2022-11-11T10:17:02;101706.56;;;11.24;80.75
50484;BME280;36409;52.168;20.878;2022-11-11T10:20:02;101715.25;;;11.20;80.48
50484;BME280;36409;52.168;20.878;2022-11-11T10:22:59;101715.23;;;11.17;80.95
50484;BME280;36409;52.168;20.878;2022-11-11T10:25:53;101712.62;;;11.16;81.00
50484;BME280;36409;52.168;20.878;2022-11-11T10:28:44;101702.17;;;11.14;80.65
50484;BME280;36409;52.168;20.878;2022-11-11T10:31:35;101699.56;;;11.14;81.11
50484;BME280;36409;52.168;20.878;2022-11-11T10:34:31;101689.97;;;11.13;80.51
50484;BME280;36409;52.168;20.878;2022-11-11T10:37:22;101696.05;;;11.13;80.04
50484;BME280;36409;52.168;20.878;2022-11-11T10:40:17;101703.02;;;11.16;79.85
50484;BME280;36409;52.168;20.878;2022-11-11T10:43:17;101715.23;;;11.17;80.62
50484;BME280;36409;52.168;20.878;2022-11-11T10:46:17;101706.54;;;11.23;80.52
50484;BME280;36409;52.168;20.878;2022-11-11T10:49:12;101717.02;;;11.27;79.28
50484;BME280;36409;52.168;20.878;2022-11-11T10:52:09;101709.20;;;11.29;80.84
50484;BME280;36409;52.168;20.878;2022-11-11T10:55:01;101724.87;;;11.32;80.39
50484;BME280;36409;52.168;20.878;2022-11-11T10:57:53;101726.62;;;11.33;80.10
50484;BME280;36409;52.168;20.878;2022-11-11T11:00:46;101705.73;;;11.36;79.46
50484;BME280;36409;52.168;20.878;2022-11-11T11:03:38;101710.98;;;11.39;80.19
50484;BME280;36409;52.168;20.878;2022-11-11T11:06:30;101697.03;;;11.42;79.40
50484;BME280;36409;52.168;20.878;2022-11-11T11:09:23;101697.91;;;11.41;78.89
50484;BME280;36409;52.168;20.878;2022-11-11T11:12:16;101700.55;;;11.42;79.75
50484;BME280;36409;52.168;20.878;2022-11-11T11:15:10;101697.03;;;11.43;79.26
50484;BME280;36409;52.168;20.878;2022-11-11T11:18:03;101685.69;;;11.40;79.81
50484;BME280;36409;52.168;20.878;2022-11-11T11:20:59;101697.02;;;11.39;79.10
50484;BME280;36409;52.168;20.878;2022-11-11T11:23:51;101683.95;;;11.37;79.58
50484;BME280;36409;52.168;20.878;2022-11-11T11:26:47;101681.34;;;11.37;79.36
50484;BME280;36409;52.168;20.878;2022-11-11T11:29:36;101670.02;;;11.40;78.99
50484;BME280;36409;52.168;20.878;2022-11-11T11:32:28;101677.85;;;11.40;78.88
50484;BME280;36409;52.168;20.878;2022-11-11T11:35:32;101667.42;;;11.41;78.79
50484;BME280;36409;52.168;20.878;2022-11-11T11:38:40;101667.41;;;11.43;79.55
50484;BME280;36409;52.168;20.878;2022-11-11T11:41:41;101670.02;;;11.44;79.16
50484;BME280;36409;52.168;20.878;2022-11-11T11:44:30;101666.54;;;11.46;79.37
50484;BME280;36409;52.168;20.878;2022-11-11T11:47:38;101679.62;;;11.44;78.73
50484;BME280;36409;52.168;20.878;2022-11-11T11:50:39;101678.75;;;11.45;78.74
50484;BME280;36409;52.168;20.878;2022-11-11T11:53:37;101677.00;;;11.46;79.27
50484;BME280;36409;52.168;20.878;2022-11-11T11:56:37;101683.12;;;11.46;78.78
50484;BME280;36409;52.168;20.878;2022-11-11T11:59:35;101685.70;;;11.44;79.24
50484;BME280;36409;52.168;20.878;2022-11-11T12:02:49;101683.95;;;11.43;78.56
50484;BME280;36409;52.168;20.878;2022-11-11T12:05:43;101680.48;;;11.44;78.58
50484;BME280;36409;52.168;20.878;2022-11-11T12:08:49;101668.30;;;11.45;78.33
50484;BME280;36409;52.168;20.878;2022-11-11T12:11:50;101664.80;;;11.49;78.96
50484;BME280;36409;52.168;20.878;2022-11-11T12:15:05;101670.03;;;11.49;78.26
50484;BME280;36409;52.168;20.878;2022-11-11T12:18:11;101670.03;;;11.49;78.07
50484;BME280;36409;52.168;20.878;2022-11-11T12:21:06;101675.27;;;11.48;78.29
50484;BME280;36409;52.168;20.878;2022-11-11T12:24:10;101678.77;;;11.48;78.76
50484;BME280;36409;52.168;20.878;2022-11-11T12:27:13;101678.77;;;11.48;78.47
50484;BME280;36409;52.168;20.878;2022-11-11T12:30:07;101683.10;;;11.49;78.79
50484;BME280;36409;52.168;20.878;2022-11-11T12:36:23;101690.97;;;11.51;77.59
50484;BME280;36409;52.168;20.878;2022-11-11T12:39:30;101690.97;;;11.52;78.34
50484;BME280;36409;52.168;20.878;2022-11-11T12:42:36;101690.12;;;11.56;78.50
50484;BME280;36409;52.168;20.878;2022-11-11T12:45:41;101697.07;;;11.56;78.50
50484;BME280;36409;52.168;20.878;2022-11-11T12:48:48;101698.83;;;11.55;78.62
50484;BME280;36409;52.168;20.878;2022-11-11T12:51:53;101702.31;;;11.53;78.66
50484;BME280;36409;52.168;20.878;2022-11-11T12:54:55;101703.16;;;11.50;78.36
50484;BME280;36409;52.168;20.878;2022-11-11T12:58:02;101700.55;;;11.47;77.98
50484;BME280;36409;52.168;20.878;2022-11-11T13:01:07;101686.57;;;11.43;77.90
50484;BME280;36409;52.168;20.878;2022-11-11T13:04:28;101683.97;;;11.40;77.90
50484;BME280;36409;52.168;20.878;2022-11-11T13:07:50;101676.12;;;11.36;77.90
50484;BME280;36409;52.168;20.878;2022-11-11T13:10:49;101669.99;;;11.29;77.95
50484;BME280;36409;52.168;20.878;2022-11-11T13:13:55;101673.45;;;11.25;77.60
50484;BME280;36409;52.168;20.878;2022-11-11T13:16:49;101668.21;;;11.19;77.33
50484;BME280;36409;52.168;20.878;2022-11-11T13:19:43;101669.05;;;11.15;78.23
50484;BME280;36409;52.168;20.878;2022-11-11T13:22:34;101673.42;;;11.14;77.21
50484;BME280;36409;52.168;20.878;2022-11-11T13:25:25;101673.41;;;11.11;77.29
50484;BME280;36409;52.168;20.878;2022-11-11T13:28:18;101668.15;;;11.09;77.48
50484;BME280;36409;52.168;20.878;2022-11-11T13:31:15;101670.77;;;11.06;77.53
50484;BME280;36409;52.168;20.878;2022-11-11T13:34:17;101660.30;;;11.05;77.76
50484;BME280;36409;52.168;20.878;2022-11-11T13:37:22;101662.02;;;11.01;77.90
50484;BME280;36409;52.168;20.878;2022-11-11T13:43:34;101664.59;;;10.93;77.41
50484;BME280;36409;52.168;20.878;2022-11-11T13:46:54;101670.68;;;10.92;78.02
50484;BME280;36409;52.168;20.878;2022-11-11T13:49:52;101666.33;;;10.88;78.13
50484;BME280;36409;52.168;20.878;2022-11-11T13:52:52;101670.66;;;10.88;77.84
50484;BME280;36409;52.168;20.878;2022-11-11T13:55:43;101668.92;;;10.84;77.46
50484;BME280;36409;52.168;20.878;2022-11-11T13:58:42;101667.14;;;10.79;77.74
50484;BME280;36409;52.168;20.878;2022-11-11T14:01:36;101664.51;;;10.75;77.26
50484;BME280;36409;52.168;20.878;2022-11-11T14:07:57;101677.48;;;10.64;77.01
50484;BME280;36409;52.168;20.878;2022-11-11T14:10:51;101680.94;;;10.57;77.37
50484;BME280;36409;52.168;20.878;2022-11-11T14:13:45;101685.27;;;10.52;78.09
50484;BME280;36409;52.168;20.878;2022-11-11T14:16:58;101681.73;;;10.48;77.88
50484;BME280;36409;52.168;20.878;2022-11-11T14:19:50;101677.37;;;10.44;78.05
50484;BME280;36409;52.168;20.878;2022-11-11T14:22:42;101676.45;;;10.39;77.32
50484;BME280;36409;52.168;20.878;2022-11-11T14:25:30;101670.31;;;10.35;77.42
50484;BME280;36409;52.168;20.878;2022-11-11T14:28:28;101672.89;;;10.30;77.40
50484;BME280;36409;52.168;20.878;2022-11-11T14:35:00;101687.58;;;10.20;77.36
50484;BME280;36409;52.168;20.878;2022-11-11T14:38:12;101666.67;;;10.16;77.17
50484;BME280;36409;52.168;20.878;2022-11-11T14:47:43;101684.83;;;10.03;77.48
50484;BME280;36409;52.168;20.878;2022-11-11T14:50:44;101690.04;;;10.00;78.15
50484;BME280;36409;52.168;20.878;2022-11-11T14:53:37;101690.00;;;9.96;76.92
50484;BME280;36409;52.168;20.878;2022-11-11T14:56:36;101685.64;;;9.95;77.73
50484;BME280;36409;52.168;20.878;2022-11-11T14:59:32;101686.47;;;9.92;77.99
50484;BME280;36409;52.168;20.878;2022-11-11T15:02:37;101690.78;;;9.88;78.08
50484;BME280;36409;52.168;20.878;2022-11-11T15:05:49;101692.50;;;9.86;78.05
50484;BME280;36409;52.168;20.878;2022-11-11T15:08:53;101692.48;;;9.83;77.61
50484;BME280;36409;52.168;20.878;2022-11-11T15:11:54;101681.13;;;9.80;77.58
50484;BME280;36409;52.168;20.878;2022-11-11T15:14:53;101694.16;;;9.77;77.50
50484;BME280;36409;52.168;20.878;2022-11-11T15:18:00;101701.94;;;9.73;77.46
50484;BME280;36409;52.168;20.878;2022-11-11T15:21:01;101713.18;;;9.69;78.05
50484;BME280;36409;52.168;20.878;2022-11-11T15:24:14;101712.31;;;9.67;77.73
50484;BME280;36409;52.168;20.878;2022-11-11T15:27:12;101714.89;;;9.66;77.85
50484;BME280;36409;52.168;20.878;2022-11-11T15:30:10;101714.87;;;9.64;77.87
50484;BME280;36409;52.168;20.878;2022-11-11T15:33:13;101714.87;;;9.64;77.42